Time,TemperatureF,DewpointF,PressureIn,WindDirection,WindDirectionDegrees,WindSpeedMPH,WindSpeedGustMPH,Humidity,HourlyPrecipIn,Conditions,Clouds,dailyrainin,SoftwareType,DateUTC
2013-02-26 00:01:00,35.6,32.4,30.26,NE,46,0.0,0.0,88,0.00,,,0.00,Wunderground v.1.15,2013-02-26 05:01:00,
2013-02-26 00:06:00,35.5,32.3,30.26,NE,46,0.0,0.0,88,0.00,,,0.00,Wunderground v.1.15,2013-02-26 05:06:00,
2013-02-26 00:11:00,35.4,32.2,30.26,NE,46,0.0,0.0,88,0.00,,,0.00,Wunderground v.1.15,2013-02-26 05:11:00,
2013-02-26 00:16:00,35.3,32.1,30.25,NE,46,0.0,0.0,88,0.00,,,0.00,Wunderground v.1.15,2013-02-26 05:16:00,
2013-02-26 00:21:00,35.3,32.4,30.25,NE,46,0.0,0.0,89,0.00,,,0.00,Wunderground v.1.15,2013-02-26 05:21:00,
2013-02-26 00:26:00,35.3,32.4,30.25,NE,46,0.0,0.0,89,0.00,,,0.00,Wunderground v.1.15,2013-02-26 05:26:00,
2013-02-26 00:31:00,35.3,32.4,30.25,NE,46,0.0,0.0,89,0.00,,,0.00,Wunderground v.1.15,2013-02-26 05:31:00,
2013-02-26 00:41:00,35.1,32.2,30.25,NE,46,0.0,0.0,89,0.00,,,0.00,Wunderground v.1.15,2013-02-26 05:41:00,
2013-02-26 00:46:00,35.1,32.2,30.25,NE,46,0.0,0.0,89,0.00,,,0.00,Wunderground v.1.15,2013-02-26 05:46:00,
2013-02-26 00:56:00,35.1,32.2,30.25,NE,46,0.0,0.0,89,0.00,,,0.00,Wunderground v.1.15,2013-02-26 05:56:00,
2013-02-26 01:01:00,35.1,32.2,30.25,NE,46,0.0,0.0,89,0.00,,,0.00,Wunderground v.1.15,2013-02-26 06:01:00,
2013-02-26 01:06:00,35.2,32.6,30.24,NE,46,0.0,0.0,90,0.00,,,0.00,Wunderground v.1.15,2013-02-26 06:06:00,
2013-02-26 01:16:00,35.3,32.7,30.24,NE,46,0.0,0.0,90,0.00,,,0.00,Wunderground v.1.15,2013-02-26 06:16:00,
2013-02-26 01:21:00,35.2,32.3,30.24,NE,46,0.0,0.0,89,0.00,,,0.00,Wunderground v.1.15,2013-02-26 06:21:00,
2013-02-26 01:26:00,35.1,32.2,30.24,NE,46,0.0,0.0,89,0.00,,,0.00,Wunderground v.1.15,2013-02-26 06:26:00,
2013-02-26 01:31:00,35.0,32.1,30.24,NE,46,0.0,0.0,89,0.00,,,0.00,Wunderground v.1.15,2013-02-26 06:31:00,
2013-02-26 01:36:00,35.0,32.1,30.23,NE,46,0.0,0.0,89,0.00,,,0.00,Wunderground v.1.15,2013-02-26 06:36:00,
2013-02-26 01:41:00,35.0,32.4,30.24,NE,46,0.0,0.0,90,0.00,,,0.00,Wunderground v.1.15,2013-02-26 06:41:00,
2013-02-26 01:51:00,35.1,32.5,30.25,NE,46,0.0,0.0,90,0.00,,,0.00,Wunderground v.1.15,2013-02-26 06:51:00,
2013-02-26 01:56:00,35.1,32.5,30.25,NE,46,0.0,0.0,90,0.00,,,0.00,Wunderground v.1.15,2013-02-26 06:56:00,
2013-02-26 02:01:00,35.0,32.4,30.26,NE,46,0.0,0.0,90,0.00,,,0.00,Wunderground v.1.15,2013-02-26 07:01:00,
2013-02-26 02:06:00,34.8,32.2,30.27,NE,46,0.0,0.0,90,0.00,,,0.00,Wunderground v.1.15,2013-02-26 07:06:00,
2013-02-26 02:11:00,34.6,32.0,30.28,NE,46,0.0,0.0,90,0.00,,,0.00,Wunderground v.1.15,2013-02-26 07:11:00,
2013-02-26 02:16:00,34.6,32.0,30.28,NE,46,0.0,0.0,90,0.00,,,0.00,Wunderground v.1.15,2013-02-26 07:16:00,
2013-02-26 02:26:00,34.5,31.9,30.27,NE,46,0.0,0.0,90,0.00,,,0.00,Wunderground v.1.15,2013-02-26 07:26:00,
2013-02-26 02:31:00,34.5,31.9,30.27,NE,46,0.0,0.0,90,0.00,,,0.00,Wunderground v.1.15,2013-02-26 07:31:00,
2013-02-26 02:36:00,34.5,31.9,30.27,NE,46,0.0,0.0,90,0.00,,,0.00,Wunderground v.1.15,2013-02-26 07:36:00,
2013-02-26 02:46:00,34.4,31.8,30.29,NE,46,0.0,0.0,90,0.00,,,0.00,Wunderground v.1.15,2013-02-26 07:46:00,
2013-02-26 02:51:00,34.4,31.8,30.28,NE,46,0.0,0.0,90,0.00,,,0.00,Wunderground v.1.15,2013-02-26 07:51:00,
2013-02-26 03:01:00,34.4,32.0,30.28,NE,46,0.0,0.0,91,0.00,,,0.00,Wunderground v.1.15,2013-02-26 08:01:00,
2013-02-26 03:06:00,34.6,32.2,30.29,NE,46,0.0,0.0,91,0.00,,,0.00,Wunderground v.1.15,2013-02-26 08:06:00,
2013-02-26 03:16:00,34.7,32.3,30.29,NE,46,0.0,0.0,91,0.00,,,0.00,Wunderground v.1.15,2013-02-26 08:16:00,
2013-02-26 03:21:00,34.7,32.3,30.29,NE,46,0.0,0.0,91,0.00,,,0.00,Wunderground v.1.15,2013-02-26 08:21:00,
2013-02-26 03:26:00,34.7,32.3,30.29,NE,46,0.0,0.0,91,0.00,,,0.00,Wunderground v.1.15,2013-02-26 08:26:00,
2013-02-26 03:31:00,34.7,32.3,30.28,NE,46,0.0,0.0,91,0.00,,,0.00,Wunderground v.1.15,2013-02-26 08:31:00,
2013-02-26 03:41:00,34.6,32.2,30.28,NE,46,0.0,0.0,91,0.00,,,0.00,Wunderground v.1.15,2013-02-26 08:41:00,
2013-02-26 03:46:00,34.6,32.2,30.28,NE,46,0.0,0.0,91,0.00,,,0.00,Wunderground v.1.15,2013-02-26 08:46:00,
2013-02-26 03:56:00,34.6,32.2,30.28,NE,46,0.0,0.0,91,0.00,,,0.00,Wunderground v.1.15,2013-02-26 08:56:00,
2013-02-26 04:01:00,34.8,32.4,30.29,NE,46,0.0,0.0,91,0.00,,,0.00,Wunderground v.1.15,2013-02-26 09:01:00,
2013-02-26 04:06:00,34.9,32.5,30.28,NE,46,0.0,0.0,91,0.00,,,0.00,Wunderground v.1.15,2013-02-26 09:06:00,
2013-02-26 04:16:00,35.0,32.6,30.28,NE,46,0.0,0.0,91,0.00,,,0.00,Wunderground v.1.15,2013-02-26 09:16:00,
2013-02-26 04:21:00,34.9,32.5,30.28,NE,46,0.0,0.0,91,0.00,,,0.00,Wunderground v.1.15,2013-02-26 09:21:00,
2013-02-26 04:26:00,34.9,32.5,30.29,NE,46,0.0,0.0,91,0.00,,,0.00,Wunderground v.1.15,2013-02-26 09:26:00,
2013-02-26 04:36:00,35.3,32.9,30.29,NE,46,0.0,0.0,91,0.00,,,0.00,Wunderground v.1.15,2013-02-26 09:36:00,
2013-02-26 04:41:00,35.3,32.9,30.29,NE,46,0.0,0.0,91,0.00,,,0.00,Wunderground v.1.15,2013-02-26 09:41:00,
2013-02-26 04:46:00,35.2,32.8,30.29,NE,46,0.0,0.0,91,0.00,,,0.00,Wunderground v.1.15,2013-02-26 09:46:00,
2013-02-26 04:56:00,35.1,32.7,30.28,NE,46,0.0,0.0,91,0.00,,,0.00,Wunderground v.1.15,2013-02-26 09:56:00,
2013-02-26 05:01:00,35.1,32.7,30.28,NE,46,0.0,0.0,91,0.00,,,0.00,Wunderground v.1.15,2013-02-26 10:01:00,
2013-02-26 05:06:00,35.0,32.6,30.28,NE,46,0.0,0.0,91,0.00,,,0.00,Wunderground v.1.15,2013-02-26 10:06:00,
2013-02-26 05:11:00,34.9,32.5,30.29,NE,46,0.0,0.0,91,0.00,,,0.00,Wunderground v.1.15,2013-02-26 10:11:00,
2013-02-26 05:21:00,34.7,32.3,30.29,NE,46,0.0,0.0,91,0.00,,,0.00,Wunderground v.1.15,2013-02-26 10:21:00,
2013-02-26 05:26:00,34.6,32.2,30.29,NE,46,0.0,0.0,91,0.00,,,0.00,Wunderground v.1.15,2013-02-26 10:26:00,
2013-02-26 05:36:00,34.5,32.1,30.30,NE,46,0.0,0.0,91,0.00,,,0.00,Wunderground v.1.15,2013-02-26 10:36:00,
2013-02-26 05:41:00,34.5,32.1,30.29,NE,46,0.0,0.0,91,0.00,,,0.00,Wunderground v.1.15,2013-02-26 10:41:00,
2013-02-26 05:51:00,34.4,32.0,30.30,NE,46,0.0,0.0,91,0.00,,,0.00,Wunderground v.1.15,2013-02-26 10:51:00,
2013-02-26 05:56:00,34.4,32.0,30.29,NE,46,0.0,0.0,91,0.00,,,0.00,Wunderground v.1.15,2013-02-26 10:56:00,
2013-02-26 06:06:00,34.3,31.9,30.29,NE,46,0.0,0.0,91,0.00,,,0.00,Wunderground v.1.15,2013-02-26 11:06:00,
2013-02-26 06:16:00,34.3,32.2,30.29,NE,46,0.0,0.0,92,0.00,,,0.00,Wunderground v.1.15,2013-02-26 11:16:00,
2013-02-26 06:21:00,34.3,32.2,30.29,NE,46,0.0,0.0,92,0.00,,,0.00,Wunderground v.1.15,2013-02-26 11:21:00,
2013-02-26 06:26:00,34.3,32.2,30.29,NE,46,0.0,0.0,92,0.00,,,0.00,Wunderground v.1.15,2013-02-26 11:26:00,
2013-02-26 06:31:00,34.4,32.3,30.28,NE,46,0.0,0.0,92,0.00,,,0.00,Wunderground v.1.15,2013-02-26 11:31:00,
2013-02-26 06:41:00,34.4,32.3,30.29,NE,46,0.0,0.0,92,0.00,,,0.00,Wunderground v.1.15,2013-02-26 11:41:00,
2013-02-26 06:46:00,34.4,32.3,30.29,NE,46,0.0,0.0,92,0.00,,,0.00,Wunderground v.1.15,2013-02-26 11:46:00,
2013-02-26 06:56:00,34.7,32.6,30.29,NE,46,0.0,0.0,92,0.00,,,0.00,Wunderground v.1.15,2013-02-26 11:56:00,
2013-02-26 07:01:00,34.9,32.8,30.29,NE,46,0.0,0.0,92,0.00,,,0.00,Wunderground v.1.15,2013-02-26 12:01:00,
2013-02-26 07:06:00,35.0,32.9,30.30,NE,46,0.0,0.0,92,0.00,,,0.00,Wunderground v.1.15,2013-02-26 12:06:00,
2013-02-26 07:11:00,35.2,33.1,30.30,NE,46,0.0,0.0,92,0.00,,,0.00,Wunderground v.1.15,2013-02-26 12:11:00,
2013-02-26 07:21:00,35.5,33.1,30.30,NE,46,0.0,0.0,91,0.00,,,0.00,Wunderground v.1.15,2013-02-26 12:21:00,
2013-02-26 07:26:00,35.7,33.3,30.30,NE,46,0.0,0.0,91,0.00,,,0.00,Wunderground v.1.15,2013-02-26 12:26:00,
2013-02-26 07:31:00,35.9,33.5,30.30,NE,46,0.0,0.0,91,0.00,,,0.00,Wunderground v.1.15,2013-02-26 12:31:00,
2013-02-26 07:36:00,36.1,33.7,30.30,NE,46,0.0,0.0,91,0.00,,,0.00,Wunderground v.1.15,2013-02-26 12:36:00,
2013-02-26 07:46:00,36.6,33.9,30.31,NE,46,0.0,0.0,90,0.00,,,0.00,Wunderground v.1.15,2013-02-26 12:46:00,
2013-02-26 07:51:00,36.9,34.2,30.31,NE,46,0.0,0.0,90,0.00,,,0.00,Wunderground v.1.15,2013-02-26 12:51:00,
2013-02-26 07:56:00,37.2,34.3,30.31,NE,46,1.0,1.0,89,0.00,,,0.00,Wunderground v.1.15,2013-02-26 12:56:00,
2013-02-26 08:06:00,37.6,34.4,30.31,ENE,59,2.0,2.0,88,0.00,,,0.00,Wunderground v.1.15,2013-02-26 13:06:00,
2013-02-26 08:11:00,37.9,34.4,30.31,ENE,60,2.0,4.0,87,0.00,,,0.00,Wunderground v.1.15,2013-02-26 13:11:00,
2013-02-26 08:16:00,38.1,34.3,30.32,East,95,2.0,2.0,86,0.00,,,0.00,Wunderground v.1.15,2013-02-26 13:16:00,
2013-02-26 08:26:00,38.5,34.4,30.32,ESE,103,2.0,2.0,85,0.00,,,0.00,Wunderground v.1.15,2013-02-26 13:26:00,
2013-02-26 08:31:00,38.8,34.4,30.31,ESE,104,2.0,2.0,84,0.00,,,0.00,Wunderground v.1.15,2013-02-26 13:31:00,
2013-02-26 08:36:00,39.0,34.6,30.32,ESE,117,3.0,5.0,84,0.00,,,0.00,Wunderground v.1.15,2013-02-26 13:36:00,
2013-02-26 08:46:00,39.2,34.5,30.32,ESE,121,2.0,4.0,83,0.00,,,0.00,Wunderground v.1.15,2013-02-26 13:46:00,
2013-02-26 08:51:00,39.2,34.2,30.32,SSW,200,3.0,4.0,82,0.00,,,0.00,Wunderground v.1.15,2013-02-26 13:51:00,
2013-02-26 08:56:00,39.3,34.6,30.32,SSW,192,3.0,3.0,83,0.00,,,0.00,Wunderground v.1.15,2013-02-26 13:56:00,
2013-02-26 09:01:00,39.3,34.3,30.33,South,175,2.0,3.0,82,0.00,,,0.00,Wunderground v.1.15,2013-02-26 14:01:00,
2013-02-26 09:11:00,39.5,34.2,30.33,South,171,2.0,5.0,81,0.00,,,0.00,Wunderground v.1.15,2013-02-26 14:11:00,
2013-02-26 09:16:00,39.6,33.9,30.33,South,171,2.0,2.0,80,0.00,,,0.00,Wunderground v.1.15,2013-02-26 14:16:00,
2013-02-26 09:26:00,39.8,33.8,30.33,South,173,2.0,4.0,79,0.00,,,0.00,Wunderground v.1.15,2013-02-26 14:26:00,
2013-02-26 09:31:00,39.9,33.9,30.33,South,173,2.0,4.0,79,0.00,,,0.00,Wunderground v.1.15,2013-02-26 14:31:00,
2013-02-26 09:36:00,40.1,33.8,30.33,South,173,2.0,2.0,78,0.00,,,0.00,Wunderground v.1.15,2013-02-26 14:36:00,
2013-02-26 09:41:00,40.2,33.6,30.33,South,173,1.0,2.0,77,0.00,,,0.00,Wunderground v.1.15,2013-02-26 14:41:00,
2013-02-26 09:51:00,40.7,34.0,30.33,South,173,1.0,4.0,77,0.00,,,0.00,Wunderground v.1.15,2013-02-26 14:51:00,
2013-02-26 09:56:00,41.0,34.0,30.33,South,173,1.0,2.0,76,0.00,,,0.00,Wunderground v.1.15,2013-02-26 14:56:00,
2013-02-26 10:01:00,41.2,33.5,30.33,South,171,1.0,2.0,74,0.00,,,0.00,Wunderground v.1.15,2013-02-26 15:01:00,
2013-02-26 10:06:00,41.4,33.4,30.33,South,171,1.0,2.0,73,0.00,,,0.00,Wunderground v.1.15,2013-02-26 15:06:00,
2013-02-26 10:11:00,41.5,33.5,30.32,South,171,1.0,2.0,73,0.00,,,0.00,Wunderground v.1.15,2013-02-26 15:11:00,
2013-02-26 10:17:00,41.7,33.7,30.31,SSE,163,2.0,2.0,73,0.00,,,0.00,Wunderground v.1.15,2013-02-26 15:17:00,
2013-02-26 10:26:00,41.8,33.4,30.31,SSE,161,3.0,3.0,72,0.00,,,0.00,Wunderground v.1.15,2013-02-26 15:26:00,
2013-02-26 10:31:00,42.0,34.0,30.31,SSE,161,2.0,3.0,73,0.00,,,0.00,Wunderground v.1.15,2013-02-26 15:31:00,
2013-02-26 10:41:00,42.4,34.0,30.31,SSE,162,2.0,2.0,72,0.00,,,0.00,Wunderground v.1.15,2013-02-26 15:41:00,
2013-02-26 10:46:00,42.5,34.1,30.31,SSE,160,3.0,4.0,72,0.00,,,0.00,Wunderground v.1.15,2013-02-26 15:46:00,
2013-02-26 10:51:00,42.5,34.1,30.31,SE,140,3.0,4.0,72,0.00,,,0.00,Wunderground v.1.15,2013-02-26 15:51:00,
2013-02-26 10:56:00,42.6,34.5,30.31,SSE,149,3.0,3.0,73,0.00,,,0.00,Wunderground v.1.15,2013-02-26 15:56:00,
2013-02-26 11:06:00,42.7,34.6,30.32,SSE,159,3.0,4.0,73,0.00,,,0.00,Wunderground v.1.15,2013-02-26 16:06:00,
2013-02-26 11:11:00,42.8,34.7,30.32,SSE,159,3.0,4.0,73,0.00,,,0.00,Wunderground v.1.15,2013-02-26 16:11:00,
2013-02-26 11:16:00,42.9,34.5,30.32,SSE,150,3.0,5.0,72,0.00,,,0.00,Wunderground v.1.15,2013-02-26 16:16:00,
2013-02-26 11:21:00,42.8,34.4,30.32,SE,144,3.0,5.0,72,0.00,,,0.00,Wunderground v.1.15,2013-02-26 16:21:00,
2013-02-26 11:31:00,42.3,33.9,30.32,SSE,162,3.0,3.0,72,0.00,,,0.00,Wunderground v.1.15,2013-02-26 16:31:00,
2013-02-26 11:36:00,42.2,33.1,30.32,SSE,158,3.0,3.0,70,0.00,,,0.00,Wunderground v.1.15,2013-02-26 16:36:00,
2013-02-26 11:46:00,41.8,32.7,30.32,SSE,161,2.0,2.0,70,0.00,,,0.00,Wunderground v.1.15,2013-02-26 16:46:00,
2013-02-26 11:51:00,41.7,33.0,30.32,SSE,161,2.0,2.0,71,0.00,,,0.00,Wunderground v.1.15,2013-02-26 16:51:00,
2013-02-26 11:56:00,41.5,33.1,30.32,SSE,160,2.0,8.0,72,0.00,,,0.00,Wunderground v.1.15,2013-02-26 16:56:00,
2013-02-26 12:06:00,41.4,33.4,30.31,SSE,155,2.0,8.0,73,0.00,,,0.00,Wunderground v.1.15,2013-02-26 17:06:00,
2013-02-26 12:11:00,41.4,33.4,30.31,SSE,155,2.0,8.0,73,0.00,,,0.00,Wunderground v.1.15,2013-02-26 17:11:00,
2013-02-26 12:16:00,41.4,33.4,30.31,SSE,157,2.0,2.0,73,0.00,,,0.00,Wunderground v.1.15,2013-02-26 17:16:00,
2013-02-26 12:26:00,41.5,33.1,30.30,SSE,163,2.0,2.0,72,0.00,,,0.00,Wunderground v.1.15,2013-02-26 17:26:00,
2013-02-26 12:31:00,41.6,33.6,30.30,SE,138,3.0,7.0,73,0.00,,,0.00,Wunderground v.1.15,2013-02-26 17:31:00,
2013-02-26 12:36:00,41.6,33.6,30.30,SE,142,3.0,3.0,73,0.00,,,0.00,Wunderground v.1.15,2013-02-26 17:36:00,
2013-02-26 12:41:00,41.6,33.9,30.30,SE,142,3.0,8.0,74,0.00,,,0.00,Wunderground v.1.15,2013-02-26 17:41:00,
2013-02-26 12:46:00,41.6,33.6,30.30,SE,143,2.0,8.0,73,0.00,,,0.00,Wunderground v.1.15,2013-02-26 17:46:00,
2013-02-26 12:56:00,41.6,34.3,30.29,SE,144,2.0,8.0,75,0.00,,,0.00,Wunderground v.1.15,2013-02-26 17:56:00,
2013-02-26 13:01:00,41.7,34.0,30.29,SE,144,2.0,8.0,74,0.00,,,0.00,Wunderground v.1.15,2013-02-26 18:01:00,
2013-02-26 13:11:00,42.2,34.8,30.28,SE,146,2.0,8.0,75,0.00,,,0.00,Wunderground v.1.15,2013-02-26 18:11:00,
2013-02-26 13:16:00,42.5,34.5,30.28,SSE,163,2.0,8.0,73,0.00,,,0.00,Wunderground v.1.15,2013-02-26 18:16:00,
2013-02-26 13:21:00,42.3,34.9,30.28,SE,136,3.0,8.0,75,0.00,,,0.00,Wunderground v.1.15,2013-02-26 18:21:00,
2013-02-26 13:31:00,41.9,35.9,30.27,South,186,3.0,8.0,79,0.00,,,0.00,Wunderground v.1.15,2013-02-26 18:31:00,
2013-02-26 13:36:00,41.8,36.1,30.27,SSW,192,3.0,8.0,80,0.00,,,0.00,Wunderground v.1.15,2013-02-26 18:36:00,
2013-02-26 13:46:00,41.4,36.0,30.28,SSW,211,3.0,8.0,81,0.00,,,0.00,Wunderground v.1.15,2013-02-26 18:46:00,
2013-02-26 13:56:00,40.7,35.3,30.27,SSW,199,4.0,4.0,81,0.00,,,0.00,Wunderground v.1.15,2013-02-26 18:56:00,
2013-02-26 14:01:00,40.5,35.1,30.27,SSE,167,3.0,8.0,81,0.00,,,0.00,Wunderground v.1.15,2013-02-26 19:01:00,
2013-02-26 14:06:00,40.3,35.2,30.27,South,185,3.0,8.0,82,0.00,,,0.00,Wunderground v.1.15,2013-02-26 19:06:00,
2013-02-26 14:16:00,40.0,34.9,30.27,SSE,153,3.0,3.0,82,0.00,,,0.00,Wunderground v.1.15,2013-02-26 19:16:00,
2013-02-26 14:21:00,40.0,34.9,30.26,South,178,2.0,8.0,82,0.00,,,0.00,Wunderground v.1.15,2013-02-26 19:21:00,
2013-02-26 14:26:00,39.9,34.9,30.27,South,174,3.0,3.0,82,0.00,,,0.00,Wunderground v.1.15,2013-02-26 19:26:00,
2013-02-26 14:31:00,40.0,34.9,30.26,South,174,3.0,4.0,82,0.00,,,0.00,Wunderground v.1.15,2013-02-26 19:31:00,
2013-02-26 14:41:00,39.9,34.9,30.27,SSW,198,1.0,8.0,82,0.00,,,0.00,Wunderground v.1.15,2013-02-26 19:41:00,
2013-02-26 14:46:00,39.8,34.8,30.27,SSE,162,2.0,8.0,82,0.00,,,0.00,Wunderground v.1.15,2013-02-26 19:46:00,
2013-02-26 14:51:00,39.8,34.8,30.27,South,188,3.0,8.0,82,0.00,,,0.00,Wunderground v.1.15,2013-02-26 19:51:00,
2013-02-26 14:56:00,39.8,34.8,30.27,South,190,3.0,8.0,82,0.00,,,0.00,Wunderground v.1.15,2013-02-26 19:56:00,
2013-02-26 15:06:00,39.8,34.8,30.27,SSE,149,3.0,3.0,82,0.00,,,0.00,Wunderground v.1.15,2013-02-26 20:06:00,
2013-02-26 15:11:00,40.0,34.9,30.27,SSE,155,3.0,5.0,82,0.00,,,0.00,Wunderground v.1.15,2013-02-26 20:11:00,
2013-02-26 15:16:00,40.0,34.6,30.27,SSE,155,3.0,8.0,81,0.00,,,0.00,Wunderground v.1.15,2013-02-26 20:16:00,
2013-02-26 15:21:00,40.1,34.7,30.27,SSE,160,3.0,8.0,81,0.00,,,0.00,Wunderground v.1.15,2013-02-26 20:21:00,
2013-02-26 15:26:00,40.0,34.6,30.26,South,170,2.0,2.0,81,0.00,,,0.00,Wunderground v.1.15,2013-02-26 20:26:00,
2013-02-26 15:36:00,40.0,34.0,30.26,SSE,167,3.0,8.0,79,0.00,,,0.00,Wunderground v.1.15,2013-02-26 20:36:00,
2013-02-26 15:41:00,40.0,34.0,30.26,South,184,4.0,8.0,79,0.00,,,0.00,Wunderground v.1.15,2013-02-26 20:41:00,
2013-02-26 15:46:00,40.1,34.1,30.26,South,188,2.0,8.0,79,0.00,,,0.00,Wunderground v.1.15,2013-02-26 20:46:00,
2013-02-26 15:51:00,40.0,33.7,30.25,South,186,2.0,8.0,78,0.00,,,0.00,Wunderground v.1.15,2013-02-26 20:51:00,
2013-02-26 15:56:00,39.8,33.5,30.24,South,184,4.0,8.0,78,0.00,,,0.00,Wunderground v.1.15,2013-02-26 20:56:00,
2013-02-26 16:01:00,39.7,33.4,30.24,SSE,165,4.0,8.0,78,0.00,,,0.00,Wunderground v.1.15,2013-02-26 21:01:00,
2013-02-26 16:11:00,39.5,32.9,30.23,SSE,161,4.0,8.0,77,0.00,,,0.00,Wunderground v.1.15,2013-02-26 21:11:00,
2013-02-26 16:16:00,39.4,32.5,30.23,SSE,167,4.0,8.0,76,0.00,,,0.00,Wunderground v.1.15,2013-02-26 21:16:00,
2013-02-26 16:21:00,39.3,32.0,30.23,South,179,3.0,8.0,75,0.00,,,0.00,Wunderground v.1.15,2013-02-26 21:21:00,
2013-02-26 16:31:00,39.2,31.3,30.23,SSE,159,4.0,9.0,73,0.00,,,0.00,Wunderground v.1.15,2013-02-26 21:31:00,
2013-02-26 16:36:00,39.1,30.8,30.23,SE,142,3.0,3.0,72,0.00,,,0.00,Wunderground v.1.15,2013-02-26 21:36:00,
2013-02-26 16:41:00,39.0,31.1,30.23,SSE,147,3.0,8.0,73,0.00,,,0.00,Wunderground v.1.15,2013-02-26 21:41:00,
2013-02-26 16:51:00,38.9,31.6,30.22,SE,142,3.0,8.0,75,0.00,,,0.00,Wunderground v.1.15,2013-02-26 21:51:00,
2013-02-26 17:01:00,38.7,32.1,30.22,South,174,3.0,4.0,77,0.00,,,0.00,Wunderground v.1.15,2013-02-26 22:01:00,
2013-02-26 17:06:00,38.6,32.3,30.22,South,171,3.0,8.0,78,0.00,,,0.00,Wunderground v.1.15,2013-02-26 22:06:00,
2013-02-26 17:11:00,38.6,32.6,30.23,South,177,3.0,8.0,79,0.00,,,0.00,Wunderground v.1.15,2013-02-26 22:11:00,
2013-02-26 17:16:00,38.4,32.5,30.22,South,171,3.0,8.0,79,0.00,,,0.00,Wunderground v.1.15,2013-02-26 22:16:00,
2013-02-26 17:26:00,38.3,32.7,30.22,SSE,165,2.0,8.0,80,0.00,,,0.00,Wunderground v.1.15,2013-02-26 22:26:00,
2013-02-26 17:31:00,38.1,32.8,30.23,SSE,168,2.0,8.0,81,0.00,,,0.00,Wunderground v.1.15,2013-02-26 22:31:00,
2013-02-26 17:36:00,38.0,33.0,30.22,SSE,157,3.0,8.0,82,0.00,,,0.00,Wunderground v.1.15,2013-02-26 22:36:00,
2013-02-26 17:41:00,38.0,33.0,30.22,SE,144,3.0,8.0,82,0.00,,,0.00,Wunderground v.1.15,2013-02-26 22:41:00,
2013-02-26 17:46:00,37.9,33.2,30.21,South,179,4.0,4.0,83,0.00,,,0.00,Wunderground v.1.15,2013-02-26 22:46:00,
2013-02-26 17:51:00,37.9,33.2,30.20,South,175,3.0,8.0,83,0.00,,,0.00,Wunderground v.1.15,2013-02-26 22:51:00,
2013-02-26 17:56:00,37.7,33.0,30.21,South,175,4.0,8.0,83,0.00,,,0.00,Wunderground v.1.15,2013-02-26 22:56:00,
2013-02-26 18:06:00,37.6,33.2,30.19,SSE,167,5.0,5.0,84,0.00,,,0.00,Wunderground v.1.15,2013-02-26 23:06:00,
2013-02-26 18:11:00,37.5,33.1,30.20,SSE,156,4.0,6.0,84,0.00,,,0.00,Wunderground v.1.15,2013-02-26 23:11:00,
2013-02-26 18:21:00,37.5,33.1,30.19,SSE,162,4.0,8.0,84,0.00,,,0.00,Wunderground v.1.15,2013-02-26 23:21:00,
2013-02-26 18:26:00,37.5,33.1,30.20,SSW,201,4.0,4.0,84,0.00,,,0.00,Wunderground v.1.15,2013-02-26 23:26:00,
2013-02-26 18:31:00,37.4,33.0,30.20,SSE,153,4.0,8.0,84,0.00,,,0.00,Wunderground v.1.15,2013-02-26 23:31:00,
2013-02-26 18:41:00,37.4,33.0,30.19,SSE,147,4.0,8.0,84,0.00,,,0.00,Wunderground v.1.15,2013-02-26 23:41:00,
2013-02-26 18:51:00,37.3,32.9,30.18,South,171,4.0,8.0,84,0.00,,,0.00,Wunderground v.1.15,2013-02-26 23:51:00,
2013-02-26 18:56:00,37.3,33.2,30.18,SSE,153,4.0,8.0,85,0.00,,,0.00,Wunderground v.1.15,2013-02-26 23:56:00,
2013-02-26 19:01:00,37.3,33.2,30.19,South,175,4.0,8.0,85,0.00,,,0.00,Wunderground v.1.15,2013-02-27 00:01:00,
2013-02-26 19:11:00,37.4,33.0,30.18,SE,140,4.0,8.0,84,0.00,,,0.00,Wunderground v.1.15,2013-02-27 00:11:00,
2013-02-26 19:16:00,37.5,33.1,30.18,SSE,150,4.0,4.0,84,0.00,,,0.00,Wunderground v.1.15,2013-02-27 00:16:00,
2013-02-26 19:21:00,37.5,33.1,30.18,South,174,3.0,8.0,84,0.00,,,0.00,Wunderground v.1.15,2013-02-27 00:21:00,
2013-02-26 19:26:00,37.7,33.3,30.18,South,170,4.0,8.0,84,0.00,,,0.00,Wunderground v.1.15,2013-02-27 00:26:00,
2013-02-26 19:31:00,37.7,33.3,30.18,SSE,163,5.0,10.0,84,0.00,,,0.00,Wunderground v.1.15,2013-02-27 00:31:00,
2013-02-26 19:41:00,37.8,33.4,30.17,SSE,159,4.0,8.0,84,0.00,,,0.00,Wunderground v.1.15,2013-02-27 00:41:00,
2013-02-26 19:46:00,37.9,33.2,30.17,SSE,159,4.0,8.0,83,0.00,,,0.00,Wunderground v.1.15,2013-02-27 00:46:00,
2013-02-26 19:51:00,37.9,33.2,30.18,SSE,164,4.0,8.0,83,0.00,,,0.00,Wunderground v.1.15,2013-02-27 00:51:00,
2013-02-26 19:56:00,38.0,33.3,30.17,South,170,4.0,8.0,83,0.00,,,0.00,Wunderground v.1.15,2013-02-27 00:56:00,
2013-02-26 20:01:00,38.0,33.3,30.17,South,182,3.0,8.0,83,0.00,,,0.00,Wunderground v.1.15,2013-02-27 01:01:00,
2013-02-26 20:11:00,38.0,33.3,30.16,SSE,156,5.0,5.0,83,0.00,,,0.00,Wunderground v.1.15,2013-02-27 01:11:00,
2013-02-26 20:16:00,38.1,33.4,30.17,SE,142,5.0,5.0,83,0.00,,,0.00,Wunderground v.1.15,2013-02-27 01:16:00,
2013-02-26 20:21:00,38.1,33.4,30.16,South,190,4.0,8.0,83,0.00,,,0.00,Wunderground v.1.15,2013-02-27 01:21:00,
2013-02-26 20:26:00,38.1,33.7,30.16,South,180,5.0,8.0,84,0.00,,,0.00,Wunderground v.1.15,2013-02-27 01:26:00,
2013-02-26 20:36:00,38.1,33.7,30.15,South,169,5.0,5.0,84,0.00,,,0.00,Wunderground v.1.15,2013-02-27 01:36:00,
2013-02-26 20:41:00,38.0,33.9,30.15,SSE,163,5.0,8.0,85,0.00,,,0.00,Wunderground v.1.15,2013-02-27 01:41:00,
2013-02-26 20:46:00,38.0,33.9,30.15,SE,144,5.0,9.0,85,0.00,,,0.00,Wunderground v.1.15,2013-02-27 01:46:00,
2013-02-26 20:51:00,37.9,34.1,30.15,SSE,163,5.0,9.0,86,0.00,,,0.00,Wunderground v.1.15,2013-02-27 01:51:00,
2013-02-26 21:01:00,37.9,34.1,30.14,SSE,167,5.0,5.0,86,0.00,,,0.00,Wunderground v.1.15,2013-02-27 02:01:00,
2013-02-26 21:06:00,37.8,34.3,30.14,South,176,5.0,5.0,87,0.00,,,0.00,Wunderground v.1.15,2013-02-27 02:06:00,
2013-02-26 21:12:00,37.8,34.3,30.13,SSE,165,4.0,8.0,87,0.00,,,0.00,Wunderground v.1.15,2013-02-27 02:12:00,
2013-02-26 21:22:00,37.7,34.2,30.11,South,182,5.0,11.0,87,0.00,,,0.00,Wunderground v.1.15,2013-02-27 02:22:00,
2013-02-26 21:31:00,37.8,34.3,30.12,South,178,6.0,12.0,87,0.00,,,0.00,Wunderground v.1.15,2013-02-27 02:31:00,
2013-02-26 21:41:00,37.8,34.6,30.10,SSW,199,6.0,10.0,88,0.00,,,0.00,Wunderground v.1.15,2013-02-27 02:41:00,
2013-02-26 21:46:00,37.8,34.6,30.10,SSE,155,6.0,6.0,88,0.00,,,0.00,Wunderground v.1.15,2013-02-27 02:46:00,
2013-02-26 21:56:00,37.8,34.6,30.10,SSE,158,6.0,8.0,88,0.00,,,0.00,Wunderground v.1.15,2013-02-27 02:56:00,
2013-02-26 22:01:00,37.7,34.8,30.09,SSE,155,6.0,8.0,89,0.00,,,0.01,Wunderground v.1.15,2013-02-27 03:01:00,
2013-02-26 22:11:00,37.6,34.7,30.08,SSE,153,6.0,8.0,89,0.08,,,0.02,Wunderground v.1.15,2013-02-27 03:11:00,
2013-02-26 22:16:00,37.4,34.7,30.07,SE,146,6.0,9.0,90,0.07,,,0.02,Wunderground v.1.15,2013-02-27 03:16:00,
2013-02-26 22:21:00,37.3,34.6,30.07,SSE,165,6.0,9.0,90,0.06,,,0.03,Wunderground v.1.15,2013-02-27 03:21:00,
2013-02-26 22:26:00,37.3,34.6,30.07,SSE,148,6.0,6.0,90,0.08,,,0.04,Wunderground v.1.15,2013-02-27 03:26:00,
2013-02-26 22:31:00,37.2,34.8,30.06,SSE,156,6.0,8.0,91,0.08,,,0.04,Wunderground v.1.15,2013-02-27 03:31:00,
2013-02-26 22:41:00,37.1,34.7,30.06,South,169,6.0,8.0,91,0.04,,,0.05,Wunderground v.1.15,2013-02-27 03:41:00,
2013-02-26 22:46:00,37.1,35.0,30.06,SSE,162,6.0,6.0,92,0.04,,,0.05,Wunderground v.1.15,2013-02-27 03:46:00,
2013-02-26 22:51:00,37.1,35.0,30.06,SSE,155,6.0,8.0,92,0.04,,,0.05,Wunderground v.1.15,2013-02-27 03:51:00,
2013-02-26 22:56:00,37.1,35.0,30.06,SSE,167,5.0,8.0,92,0.04,,,0.06,Wunderground v.1.15,2013-02-27 03:56:00,
2013-02-26 23:01:00,37.1,35.0,30.05,SE,138,6.0,9.0,92,0.04,,,0.06,Wunderground v.1.15,2013-02-27 04:01:00,
2013-02-26 23:11:00,37.1,35.0,30.04,SE,134,6.0,8.0,92,0.00,,,0.06,Wunderground v.1.15,2013-02-27 04:11:00,
2013-02-26 23:16:00,37.2,35.1,30.04,SSE,148,5.0,8.0,92,0.00,,,0.06,Wunderground v.1.15,2013-02-27 04:16:00,
2013-02-26 23:21:00,37.2,35.4,30.03,SSE,155,5.0,8.0,93,0.00,,,0.07,Wunderground v.1.15,2013-02-27 04:21:00,
2013-02-26 23:26:00,37.3,35.5,30.03,SSE,152,7.0,7.0,93,0.00,,,0.07,Wunderground v.1.15,2013-02-27 04:26:00,
2013-02-26 23:31:00,37.3,35.5,30.03,SSE,148,6.0,8.0,93,0.06,,,0.08,Wunderground v.1.15,2013-02-27 04:31:00,
2013-02-26 23:36:00,37.3,35.5,30.02,SSE,162,6.0,8.0,93,0.06,,,0.08,Wunderground v.1.15,2013-02-27 04:36:00,
2013-02-26 23:46:00,37.4,35.6,30.02,SSE,165,7.0,7.0,93,0.00,,,0.08,Wunderground v.1.15,2013-02-27 04:46:00,
2013-02-26 23:51:00,37.4,35.6,30.02,SSE,168,7.0,8.0,93,0.16,,,0.10,Wunderground v.1.15,2013-02-27 04:51:00,
2013-02-26 23:56:00,37.5,35.7,30.00,South,183,6.0,14.0,93,0.10,,,0.10,Wunderground v.1.15,2013-02-27 04:56:00,